THUNDERSTORM

Not for real navigation. The accuracy of this data is not assured See disclaimer for more information



ICAO NAME COUNTRY WIND Kt GUST Kt VIS m TEMP/DEW C BARO METAR
KINK WINKLER COUNTY AIRPORT TX United States 0 0 800 4/3 29.90 KINK 190653Z AUTO 00000KT 0.5SM FG VV001 04/03 A2990 RMK AO2 SLP109 T00390033 TS
PATO PORTAGE GLACIER AK United States 5 0 1600 -5/-7 29.03 PATO 190642Z AUTO 28005KT 1SM -SN BR VV011 M05/M07 A2903 RMK AO2 P0003 T10501067 TS
PAHO HOMER AIRPORT AK United States 15 0 1600 -4/-6 29.05 PAHO 190653Z AUTO 25015KT 1 0.5SM -SN BLSN BKN010 OVC015 M04/M06 A2905 RMK AO2 SLP840 P0001 T1039105
PAEN KENAI MUNICIPAL AIRPORT AK United States 4 0 1600 -6/-7 29.06 PAEN 190653Z AUTO 35004KT 1 0.75SM -SN BR OVC014 M06/M07 A2906 RMK AO2 SLP845 P0002 T10561067 TS
WIOO Pontianak / Supadio Indonesia 7 0 2000 27/25 29.83 WIOO 190630Z 28007KT 2000 TSRA FEW011CB BKN012 27/25 Q1010

Show more